sensor_id;sensor_type;location;lat;lon;timestamp;P1;durP1;ratioP1;P2;durP2;ratioP2
61840;SDS011;47773;53.174;6.614;2024-01-06T00:01:40;30.58;;;15.20;;
61840;SDS011;47773;53.174;6.614;2024-01-06T00:04:06;28.48;;;15.30;;
61840;SDS011;47773;53.174;6.614;2024-01-06T00:06:32;28.80;;;14.98;;
61840;SDS011;47773;53.174;6.614;2024-01-06T00:08:57;28.00;;;13.85;;
61840;SDS011;47773;53.174;6.614;2024-01-06T00:11:23;28.75;;;14.88;;
61840;SDS011;47773;53.174;6.614;2024-01-06T00:13:49;28.92;;;14.73;;
61840;SDS011;47773;53.174;6.614;2024-01-06T00:16:18;27.40;;;14.10;;
61840;SDS011;47773;53.174;6.614;2024-01-06T00:18:48;30.50;;;14.27;;
61840;SDS011;47773;53.174;6.614;2024-01-06T00:21:14;29.42;;;15.13;;
61840;SDS011;47773;53.174;6.614;2024-01-06T00:23:40;29.40;;;14.93;;
61840;SDS011;47773;53.174;6.614;2024-01-06T00:26:07;27.88;;;14.43;;
61840;SDS011;47773;53.174;6.614;2024-01-06T00:28:33;30.48;;;14.57;;
61840;SDS011;47773;53.174;6.614;2024-01-06T00:30:59;28.55;;;15.18;;
61840;SDS011;47773;53.174;6.614;2024-01-06T00:33:24;28.25;;;14.13;;
61840;SDS011;47773;53.174;6.614;2024-01-06T00:35:50;32.13;;;15.15;;
61840;SDS011;47773;53.174;6.614;2024-01-06T00:38:16;27.73;;;14.60;;
61840;SDS011;47773;53.174;6.614;2024-01-06T00:40:42;26.80;;;13.77;;
61840;SDS011;47773;53.174;6.614;2024-01-06T00:43:07;22.88;;;12.50;;
61840;SDS011;47773;53.174;6.614;2024-01-06T00:45:33;25.27;;;13.27;;
61840;SDS011;47773;53.174;6.614;2024-01-06T00:47:59;28.95;;;14.77;;
61840;SDS011;47773;53.174;6.614;2024-01-06T00:50:24;33.45;;;14.93;;
61840;SDS011;47773;53.174;6.614;2024-01-06T00:52:50;32.05;;;14.45;;
61840;SDS011;47773;53.174;6.614;2024-01-06T00:55:19;28.35;;;14.23;;
61840;SDS011;47773;53.174;6.614;2024-01-06T00:57:45;33.22;;;14.25;;
61840;SDS011;47773;53.174;6.614;2024-01-06T01:00:11;29.25;;;14.77;;
61840;SDS011;47773;53.174;6.614;2024-01-06T01:02:37;29.30;;;14.45;;
61840;SDS011;47773;53.174;6.614;2024-01-06T01:05:03;27.95;;;13.80;;
61840;SDS011;47773;53.174;6.614;2024-01-06T01:07:29;28.83;;;13.68;;
61840;SDS011;47773;53.174;6.614;2024-01-06T01:09:55;27.80;;;14.10;;
61840;SDS011;47773;53.174;6.614;2024-01-06T01:12:22;32.50;;;14.25;;
61840;SDS011;47773;53.174;6.614;2024-01-06T01:14:49;34.30;;;14.85;;
61840;SDS011;47773;53.174;6.614;2024-01-06T01:17:15;31.13;;;13.82;;
61840;SDS011;47773;53.174;6.614;2024-01-06T01:19:41;30.33;;;13.85;;
61840;SDS011;47773;53.174;6.614;2024-01-06T01:22:07;31.35;;;14.80;;
61840;SDS011;47773;53.174;6.614;2024-01-06T01:24:32;32.00;;;14.05;;
61840;SDS011;47773;53.174;6.614;2024-01-06T01:26:58;33.15;;;13.77;;
61840;SDS011;47773;53.174;6.614;2024-01-06T01:29:23;30.27;;;14.13;;
61840;SDS011;47773;53.174;6.614;2024-01-06T01:31:49;30.08;;;13.40;;
61840;SDS011;47773;53.174;6.614;2024-01-06T01:34:15;29.40;;;13.48;;
61840;SDS011;47773;53.174;6.614;2024-01-06T01:36:40;26.80;;;13.80;;
61840;SDS011;47773;53.174;6.614;2024-01-06T01:39:06;29.20;;;12.75;;
61840;SDS011;47773;53.174;6.614;2024-01-06T01:41:32;25.35;;;12.80;;
61840;SDS011;47773;53.174;6.614;2024-01-06T01:43:57;25.70;;;12.88;;
61840;SDS011;47773;53.174;6.614;2024-01-06T01:46:26;30.02;;;13.30;;
61840;SDS011;47773;53.174;6.614;2024-01-06T01:48:53;28.00;;;13.65;;
61840;SDS011;47773;53.174;6.614;2024-01-06T01:51:23;28.50;;;12.90;;
61840;SDS011;47773;53.174;6.614;2024-01-06T01:53:51;25.48;;;12.80;;
61840;SDS011;47773;53.174;6.614;2024-01-06T01:56:18;28.17;;;13.50;;
61840;SDS011;47773;53.174;6.614;2024-01-06T01:58:44;27.15;;;13.65;;
61840;SDS011;47773;53.174;6.614;2024-01-06T02:01:11;28.27;;;13.20;;
61840;SDS011;47773;53.174;6.614;2024-01-06T02:03:37;25.52;;;12.23;;
61840;SDS011;47773;53.174;6.614;2024-01-06T02:06:03;26.00;;;12.52;;
61840;SDS011;47773;53.174;6.614;2024-01-06T02:08:28;26.08;;;13.27;;
61840;SDS011;47773;53.174;6.614;2024-01-06T02:10:54;27.90;;;13.40;;
61840;SDS011;47773;53.174;6.614;2024-01-06T02:13:21;25.45;;;12.57;;
61840;SDS011;47773;53.174;6.614;2024-01-06T02:15:47;26.20;;;13.32;;
61840;SDS011;47773;53.174;6.614;2024-01-06T02:18:12;26.33;;;13.35;;
61840;SDS011;47773;53.174;6.614;2024-01-06T02:20:38;30.17;;;14.55;;
61840;SDS011;47773;53.174;6.614;2024-01-06T02:23:08;32.63;;;14.07;;
61840;SDS011;47773;53.174;6.614;2024-01-06T02:25:33;31.27;;;13.98;;
61840;SDS011;47773;53.174;6.614;2024-01-06T02:28:00;31.35;;;13.80;;
61840;SDS011;47773;53.174;6.614;2024-01-06T02:30:26;28.52;;;13.30;;
61840;SDS011;47773;53.174;6.614;2024-01-06T02:32:51;25.05;;;13.00;;
61840;SDS011;47773;53.174;6.614;2024-01-06T02:35:17;29.85;;;13.73;;
61840;SDS011;47773;53.174;6.614;2024-01-06T02:37:42;25.67;;;12.68;;
61840;SDS011;47773;53.174;6.614;2024-01-06T02:40:08;29.55;;;13.13;;
61840;SDS011;47773;53.174;6.614;2024-01-06T02:42:35;28.77;;;13.35;;
61840;SDS011;47773;53.174;6.614;2024-01-06T02:45:00;26.80;;;13.07;;
61840;SDS011;47773;53.174;6.614;2024-01-06T02:47:26;30.42;;;14.57;;
61840;SDS011;47773;53.174;6.614;2024-01-06T02:49:51;29.63;;;13.35;;
61840;SDS011;47773;53.174;6.614;2024-01-06T02:52:17;29.02;;;13.75;;
61840;SDS011;47773;53.174;6.614;2024-01-06T02:54:43;27.38;;;13.18;;
61840;SDS011;47773;53.174;6.614;2024-01-06T02:57:08;33.22;;;14.05;;
61840;SDS011;47773;53.174;6.614;2024-01-06T02:59:34;27.25;;;12.45;;
61840;SDS011;47773;53.174;6.614;2024-01-06T03:02:00;25.13;;;12.57;;
61840;SDS011;47773;53.174;6.614;2024-01-06T03:04:26;26.13;;;12.32;;
61840;SDS011;47773;53.174;6.614;2024-01-06T03:06:52;27.00;;;12.05;;
61840;SDS011;47773;53.174;6.614;2024-01-06T03:09:18;24.33;;;11.73;;
61840;SDS011;47773;53.174;6.614;2024-01-06T03:11:44;26.30;;;12.23;;
61840;SDS011;47773;53.174;6.614;2024-01-06T03:14:10;25.08;;;11.93;;
61840;SDS011;47773;53.174;6.614;2024-01-06T03:16:36;27.77;;;12.93;;
61840;SDS011;47773;53.174;6.614;2024-01-06T03:19:02;27.52;;;13.23;;
61840;SDS011;47773;53.174;6.614;2024-01-06T03:21:28;27.23;;;12.07;;
61840;SDS011;47773;53.174;6.614;2024-01-06T03:23:54;28.15;;;13.13;;
61840;SDS011;47773;53.174;6.614;2024-01-06T03:26:20;26.88;;;13.40;;
61840;SDS011;47773;53.174;6.614;2024-01-06T03:28:48;25.58;;;12.18;;
61840;SDS011;47773;53.174;6.614;2024-01-06T03:31:14;23.95;;;12.50;;
61840;SDS011;47773;53.174;6.614;2024-01-06T03:33:40;27.98;;;12.23;;
61840;SDS011;47773;53.174;6.614;2024-01-06T03:36:06;27.70;;;12.13;;
61840;SDS011;47773;53.174;6.614;2024-01-06T03:38:32;27.20;;;13.52;;
61840;SDS011;47773;53.174;6.614;2024-01-06T03:40:59;23.27;;;11.75;;
61840;SDS011;47773;53.174;6.614;2024-01-06T03:43:24;24.58;;;12.50;;
61840;SDS011;47773;53.174;6.614;2024-01-06T03:45:50;31.63;;;12.68;;
61840;SDS011;47773;53.174;6.614;2024-01-06T03:48:16;26.13;;;12.32;;
61840;SDS011;47773;53.174;6.614;2024-01-06T03:50:41;28.95;;;13.05;;
61840;SDS011;47773;53.174;6.614;2024-01-06T03:53:07;26.73;;;13.07;;
61840;SDS011;47773;53.174;6.614;2024-01-06T03:55:33;24.13;;;12.57;;
61840;SDS011;47773;53.174;6.614;2024-01-06T03:57:58;31.35;;;13.70;;
61840;SDS011;47773;53.174;6.614;2024-01-06T04:00:27;31.42;;;15.10;;
61840;SDS011;47773;53.174;6.614;2024-01-06T04:02:53;33.78;;;14.65;;
61840;SDS011;47773;53.174;6.614;2024-01-06T04:05:18;28.67;;;13.90;;
61840;SDS011;47773;53.174;6.614;2024-01-06T04:07:44;29.70;;;14.85;;
61840;SDS011;47773;53.174;6.614;2024-01-06T04:10:09;30.52;;;14.13;;
61840;SDS011;47773;53.174;6.614;2024-01-06T04:12:35;32.72;;;15.43;;
61840;SDS011;47773;53.174;6.614;2024-01-06T04:15:01;33.60;;;14.52;;
61840;SDS011;47773;53.174;6.614;2024-01-06T04:17:26;33.05;;;15.68;;
61840;SDS011;47773;53.174;6.614;2024-01-06T04:19:52;32.45;;;15.43;;
61840;SDS011;47773;53.174;6.614;2024-01-06T04:22:18;34.15;;;14.68;;
61840;SDS011;47773;53.174;6.614;2024-01-06T04:24:44;34.45;;;16.73;;
61840;SDS011;47773;53.174;6.614;2024-01-06T04:27:09;32.45;;;14.40;;
61840;SDS011;47773;53.174;6.614;2024-01-06T04:29:35;34.08;;;15.02;;
61840;SDS011;47773;53.174;6.614;2024-01-06T04:32:01;36.53;;;16.08;;
61840;SDS011;47773;53.174;6.614;2024-01-06T04:34:27;32.58;;;15.77;;
61840;SDS011;47773;53.174;6.614;2024-01-06T04:36:52;32.33;;;15.52;;
61840;SDS011;47773;53.174;6.614;2024-01-06T04:39:18;36.85;;;15.18;;
61840;SDS011;47773;53.174;6.614;2024-01-06T04:41:43;36.08;;;15.65;;
61840;SDS011;47773;53.174;6.614;2024-01-06T04:44:09;28.77;;;14.15;;
61840;SDS011;47773;53.174;6.614;2024-01-06T04:46:35;32.10;;;15.45;;
61840;SDS011;47773;53.174;6.614;2024-01-06T04:49:00;35.17;;;15.27;;
61840;SDS011;47773;53.174;6.614;2024-01-06T04:51:26;31.73;;;15.32;;
61840;SDS011;47773;53.174;6.614;2024-01-06T04:53:52;30.90;;;15.13;;
61840;SDS011;47773;53.174;6.614;2024-01-06T04:56:17;31.63;;;15.23;;
61840;SDS011;47773;53.174;6.614;2024-01-06T04:58:43;29.85;;;14.50;;
61840;SDS011;47773;53.174;6.614;2024-01-06T05:01:09;27.63;;;14.32;;
61840;SDS011;47773;53.174;6.614;2024-01-06T05:03:35;31.60;;;15.10;;
61840;SDS011;47773;53.174;6.614;2024-01-06T05:06:00;35.05;;;15.15;;
61840;SDS011;47773;53.174;6.614;2024-01-06T05:08:26;37.65;;;15.68;;
61840;SDS011;47773;53.174;6.614;2024-01-06T05:10:52;32.08;;;14.35;;
61840;SDS011;47773;53.174;6.614;2024-01-06T05:13:19;31.17;;;14.73;;
61840;SDS011;47773;53.174;6.614;2024-01-06T05:15:44;35.50;;;14.90;;
61840;SDS011;47773;53.174;6.614;2024-01-06T05:18:10;30.65;;;14.52;;
61840;SDS011;47773;53.174;6.614;2024-01-06T05:20:36;29.77;;;13.82;;
61840;SDS011;47773;53.174;6.614;2024-01-06T05:23:01;33.55;;;14.82;;
61840;SDS011;47773;53.174;6.614;2024-01-06T05:25:27;34.35;;;14.82;;
61840;SDS011;47773;53.174;6.614;2024-01-06T05:27:52;33.38;;;14.63;;
61840;SDS011;47773;53.174;6.614;2024-01-06T05:30:18;31.20;;;14.73;;
61840;SDS011;47773;53.174;6.614;2024-01-06T05:32:44;28.27;;;14.73;;
61840;SDS011;47773;53.174;6.614;2024-01-06T05:35:09;28.02;;;13.75;;
61840;SDS011;47773;53.174;6.614;2024-01-06T05:37:35;29.45;;;13.48;;
61840;SDS011;47773;53.174;6.614;2024-01-06T05:40:00;27.30;;;13.73;;
61840;SDS011;47773;53.174;6.614;2024-01-06T05:42:28;29.85;;;13.60;;
61840;SDS011;47773;53.174;6.614;2024-01-06T05:44:54;28.42;;;13.55;;
61840;SDS011;47773;53.174;6.614;2024-01-06T05:47:20;28.88;;;13.95;;
61840;SDS011;47773;53.174;6.614;2024-01-06T05:49:46;26.67;;;13.05;;
61840;SDS011;47773;53.174;6.614;2024-01-06T05:52:11;28.13;;;13.27;;
61840;SDS011;47773;53.174;6.614;2024-01-06T05:54:40;37.67;;;14.13;;
61840;SDS011;47773;53.174;6.614;2024-01-06T05:57:07;27.20;;;13.48;;
61840;SDS011;47773;53.174;6.614;2024-01-06T05:59:33;26.15;;;13.45;;
61840;SDS011;47773;53.174;6.614;2024-01-06T06:01:59;26.27;;;12.63;;
61840;SDS011;47773;53.174;6.614;2024-01-06T06:04:25;29.98;;;13.40;;
61840;SDS011;47773;53.174;6.614;2024-01-06T06:06:50;26.70;;;12.55;;
61840;SDS011;47773;53.174;6.614;2024-01-06T06:09:16;30.63;;;13.55;;
61840;SDS011;47773;53.174;6.614;2024-01-06T06:11:42;27.15;;;12.82;;
61840;SDS011;47773;53.174;6.614;2024-01-06T06:14:08;25.75;;;13.15;;
61840;SDS011;47773;53.174;6.614;2024-01-06T06:16:34;27.08;;;12.43;;
61840;SDS011;47773;53.174;6.614;2024-01-06T06:19:00;34.05;;;13.48;;
61840;SDS011;47773;53.174;6.614;2024-01-06T06:21:25;27.23;;;13.07;;
61840;SDS011;47773;53.174;6.614;2024-01-06T06:23:51;25.83;;;13.50;;
61840;SDS011;47773;53.174;6.614;2024-01-06T06:26:17;25.17;;;13.13;;
61840;SDS011;47773;53.174;6.614;2024-01-06T06:28:43;24.75;;;13.23;;
61840;SDS011;47773;53.174;6.614;2024-01-06T06:31:08;24.50;;;12.80;;
61840;SDS011;47773;53.174;6.614;2024-01-06T06:33:34;26.15;;;12.98;;
61840;SDS011;47773;53.174;6.614;2024-01-06T06:36:00;30.65;;;13.25;;
61840;SDS011;47773;53.174;6.614;2024-01-06T06:38:26;23.90;;;12.88;;
61840;SDS011;47773;53.174;6.614;2024-01-06T06:40:53;30.85;;;14.15;;
61840;SDS011;47773;53.174;6.614;2024-01-06T06:43:19;29.13;;;13.75;;
61840;SDS011;47773;53.174;6.614;2024-01-06T06:45:45;26.50;;;13.88;;
61840;SDS011;47773;53.174;6.614;2024-01-06T06:48:10;31.38;;;13.70;;
61840;SDS011;47773;53.174;6.614;2024-01-06T06:50:36;27.98;;;13.30;;
61840;SDS011;47773;53.174;6.614;2024-01-06T06:53:01;32.65;;;13.57;;
61840;SDS011;47773;53.174;6.614;2024-01-06T06:55:28;29.63;;;14.02;;
61840;SDS011;47773;53.174;6.614;2024-01-06T06:57:53;30.23;;;14.25;;
61840;SDS011;47773;53.174;6.614;2024-01-06T07:00:19;26.33;;;13.73;;
61840;SDS011;47773;53.174;6.614;2024-01-06T07:02:45;27.25;;;13.82;;
61840;SDS011;47773;53.174;6.614;2024-01-06T07:05:11;27.83;;;14.40;;
61840;SDS011;47773;53.174;6.614;2024-01-06T07:07:37;26.60;;;14.13;;
61840;SDS011;47773;53.174;6.614;2024-01-06T07:10:05;30.20;;;14.02;;
61840;SDS011;47773;53.174;6.614;2024-01-06T07:12:32;27.65;;;14.25;;
61840;SDS011;47773;53.174;6.614;2024-01-06T07:14:58;32.13;;;14.57;;
61840;SDS011;47773;53.174;6.614;2024-01-06T07:17:26;37.80;;;15.00;;
61840;SDS011;47773;53.174;6.614;2024-01-06T07:19:52;32.60;;;15.63;;
61840;SDS011;47773;53.174;6.614;2024-01-06T07:22:18;30.98;;;15.85;;
61840;SDS011;47773;53.174;6.614;2024-01-06T07:24:44;33.78;;;15.73;;
61840;SDS011;47773;53.174;6.614;2024-01-06T07:27:10;30.88;;;16.05;;
61840;SDS011;47773;53.174;6.614;2024-01-06T07:29:36;32.35;;;16.73;;
61840;SDS011;47773;53.174;6.614;2024-01-06T07:32:02;31.40;;;15.65;;
61840;SDS011;47773;53.174;6.614;2024-01-06T07:34:28;32.70;;;16.77;;
61840;SDS011;47773;53.174;6.614;2024-01-06T07:36:54;34.33;;;16.35;;
61840;SDS011;47773;53.174;6.614;2024-01-06T07:39:20;33.50;;;16.60;;
61840;SDS011;47773;53.174;6.614;2024-01-06T07:41:48;30.20;;;15.93;;
61840;SDS011;47773;53.174;6.614;2024-01-06T07:44:14;33.83;;;16.80;;
61840;SDS011;47773;53.174;6.614;2024-01-06T07:46:41;32.42;;;16.50;;
61840;SDS011;47773;53.174;6.614;2024-01-06T07:49:07;36.40;;;17.02;;
61840;SDS011;47773;53.174;6.614;2024-01-06T07:51:32;36.35;;;18.30;;
61840;SDS011;47773;53.174;6.614;2024-01-06T07:54:00;32.78;;;16.73;;
61840;SDS011;47773;53.174;6.614;2024-01-06T07:56:26;36.13;;;17.42;;
61840;SDS011;47773;53.174;6.614;2024-01-06T07:58:52;38.28;;;18.55;;
61840;SDS011;47773;53.174;6.614;2024-01-06T08:01:17;39.95;;;18.17;;
61840;SDS011;47773;53.174;6.614;2024-01-06T08:03:43;39.65;;;20.08;;
61840;SDS011;47773;53.174;6.614;2024-01-06T08:06:09;41.38;;;19.77;;
61840;SDS011;47773;53.174;6.614;2024-01-06T08:08:35;35.33;;;18.02;;
61840;SDS011;47773;53.174;6.614;2024-01-06T08:11:01;39.67;;;19.55;;
61840;SDS011;47773;53.174;6.614;2024-01-06T08:13:26;39.72;;;19.42;;
61840;SDS011;47773;53.174;6.614;2024-01-06T08:15:52;39.60;;;19.83;;
61840;SDS011;47773;53.174;6.614;2024-01-06T08:18:18;38.38;;;18.73;;
61840;SDS011;47773;53.174;6.614;2024-01-06T08:20:43;41.45;;;18.90;;
61840;SDS011;47773;53.174;6.614;2024-01-06T08:23:09;40.88;;;20.02;;
61840;SDS011;47773;53.174;6.614;2024-01-06T08:25:35;45.28;;;20.17;;
61840;SDS011;47773;53.174;6.614;2024-01-06T08:28:01;38.80;;;19.40;;
61840;SDS011;47773;53.174;6.614;2024-01-06T08:30:27;41.20;;;20.05;;
61840;SDS011;47773;53.174;6.614;2024-01-06T08:32:53;38.53;;;20.45;;
61840;SDS011;47773;53.174;6.614;2024-01-06T08:35:18;39.20;;;19.40;;
61840;SDS011;47773;53.174;6.614;2024-01-06T08:37:44;41.50;;;19.67;;
61840;SDS011;47773;53.174;6.614;2024-01-06T08:40:10;38.88;;;19.15;;
61840;SDS011;47773;53.174;6.614;2024-01-06T08:42:36;36.05;;;18.85;;
61840;SDS011;47773;53.174;6.614;2024-01-06T08:45:02;38.20;;;20.10;;
61840;SDS011;47773;53.174;6.614;2024-01-06T08:47:29;42.88;;;19.92;;
61840;SDS011;47773;53.174;6.614;2024-01-06T08:49:55;37.95;;;19.75;;
61840;SDS011;47773;53.174;6.614;2024-01-06T08:52:21;38.97;;;19.25;;
61840;SDS011;47773;53.174;6.614;2024-01-06T08:54:46;40.58;;;19.58;;
61840;SDS011;47773;53.174;6.614;2024-01-06T08:57:12;42.05;;;19.67;;
61840;SDS011;47773;53.174;6.614;2024-01-06T08:59:38;42.38;;;20.00;;
61840;SDS011;47773;53.174;6.614;2024-01-06T09:02:05;46.80;;;19.40;;
61840;SDS011;47773;53.174;6.614;2024-01-06T09:04:30;38.78;;;18.50;;
61840;SDS011;47773;53.174;6.614;2024-01-06T09:06:56;38.53;;;18.95;;
61840;SDS011;47773;53.174;6.614;2024-01-06T09:09:21;41.47;;;19.17;;
61840;SDS011;47773;53.174;6.614;2024-01-06T09:11:48;39.10;;;18.77;;
61840;SDS011;47773;53.174;6.614;2024-01-06T09:14:14;35.55;;;18.27;;
61840;SDS011;47773;53.174;6.614;2024-01-06T09:16:41;42.17;;;19.75;;
61840;SDS011;47773;53.174;6.614;2024-01-06T09:19:07;40.05;;;19.70;;
61840;SDS011;47773;53.174;6.614;2024-01-06T09:21:33;40.53;;;19.98;;
61840;SDS011;47773;53.174;6.614;2024-01-06T09:23:58;34.63;;;18.40;;
61840;SDS011;47773;53.174;6.614;2024-01-06T09:26:25;37.80;;;18.50;;
61840;SDS011;47773;53.174;6.614;2024-01-06T09:28:51;45.53;;;20.30;;
61840;SDS011;47773;53.174;6.614;2024-01-06T09:31:16;40.35;;;19.85;;
61840;SDS011;47773;53.174;6.614;2024-01-06T09:33:42;42.38;;;19.88;;
61840;SDS011;47773;53.174;6.614;2024-01-06T09:36:08;41.20;;;20.42;;
61840;SDS011;47773;53.174;6.614;2024-01-06T09:38:36;38.53;;;18.77;;
61840;SDS011;47773;53.174;6.614;2024-01-06T09:41:02;41.55;;;19.55;;
61840;SDS011;47773;53.174;6.614;2024-01-06T09:43:28;39.58;;;21.05;;
61840;SDS011;47773;53.174;6.614;2024-01-06T09:46:02;38.60;;;19.42;;
61840;SDS011;47773;53.174;6.614;2024-01-06T09:48:35;39.15;;;18.80;;
61840;SDS011;47773;53.174;6.614;2024-01-06T09:51:06;38.80;;;19.80;;
61840;SDS011;47773;53.174;6.614;2024-01-06T09:53:36;37.05;;;18.83;;
61840;SDS011;47773;53.174;6.614;2024-01-06T09:56:08;39.45;;;19.17;;
61840;SDS011;47773;53.174;6.614;2024-01-06T09:58:34;40.42;;;18.77;;
61840;SDS011;47773;53.174;6.614;2024-01-06T10:01:02;40.60;;;20.20;;
61840;SDS011;47773;53.174;6.614;2024-01-06T10:03:28;38.03;;;19.10;;
61840;SDS011;47773;53.174;6.614;2024-01-06T10:05:54;36.63;;;17.98;;
61840;SDS011;47773;53.174;6.614;2024-01-06T10:08:20;36.50;;;17.73;;
61840;SDS011;47773;53.174;6.614;2024-01-06T10:10:45;35.00;;;17.25;;
61840;SDS011;47773;53.174;6.614;2024-01-06T10:13:11;37.25;;;16.40;;
61840;SDS011;47773;53.174;6.614;2024-01-06T10:15:41;35.80;;;16.85;;
61840;SDS011;47773;53.174;6.614;2024-01-06T10:18:07;38.72;;;18.23;;
61840;SDS011;47773;53.174;6.614;2024-01-06T10:20:33;32.38;;;17.85;;
61840;SDS011;47773;53.174;6.614;2024-01-06T10:23:03;33.05;;;17.23;;
61840;SDS011;47773;53.174;6.614;2024-01-06T10:25:30;34.70;;;17.02;;
61840;SDS011;47773;53.174;6.614;2024-01-06T10:27:56;34.78;;;17.52;;
61840;SDS011;47773;53.174;6.614;2024-01-06T10:30:22;33.00;;;16.83;;
61840;SDS011;47773;53.174;6.614;2024-01-06T10:32:50;36.90;;;16.80;;
61840;SDS011;47773;53.174;6.614;2024-01-06T10:35:17;31.60;;;15.63;;
61840;SDS011;47773;53.174;6.614;2024-01-06T10:37:43;32.50;;;14.95;;
61840;SDS011;47773;53.174;6.614;2024-01-06T10:40:11;27.40;;;15.05;;
61840;SDS011;47773;53.174;6.614;2024-01-06T10:42:38;28.38;;;14.48;;
61840;SDS011;47773;53.174;6.614;2024-01-06T10:45:08;27.83;;;13.63;;
61840;SDS011;47773;53.174;6.614;2024-01-06T10:47:38;23.10;;;12.77;;
61840;SDS011;47773;53.174;6.614;2024-01-06T10:50:06;20.85;;;11.27;;
61840;SDS011;47773;53.174;6.614;2024-01-06T10:52:37;24.60;;;11.80;;
61840;SDS011;47773;53.174;6.614;2024-01-06T10:55:04;23.42;;;11.25;;
61840;SDS011;47773;53.174;6.614;2024-01-06T10:57:31;20.88;;;11.13;;
61840;SDS011;47773;53.174;6.614;2024-01-06T10:59:57;19.70;;;11.13;;
61840;SDS011;47773;53.174;6.614;2024-01-06T11:02:24;21.15;;;11.05;;
61840;SDS011;47773;53.174;6.614;2024-01-06T11:04:50;21.00;;;10.75;;
61840;SDS011;47773;53.174;6.614;2024-01-06T11:07:20;24.08;;;11.20;;
61840;SDS011;47773;53.174;6.614;2024-01-06T11:12:36;21.58;;;11.15;;
61840;SDS011;47773;53.174;6.614;2024-01-06T11:15:02;25.48;;;11.25;;
61840;SDS011;47773;53.174;6.614;2024-01-06T11:20:18;24.17;;;11.57;;
61840;SDS011;47773;53.174;6.614;2024-01-06T11:22:44;21.80;;;10.52;;
61840;SDS011;47773;53.174;6.614;2024-01-06T11:25:13;20.05;;;10.52;;
61840;SDS011;47773;53.174;6.614;2024-01-06T11:27:41;24.70;;;11.80;;
61840;SDS011;47773;53.174;6.614;2024-01-06T11:30:11;24.27;;;11.75;;
61840;SDS011;47773;53.174;6.614;2024-01-06T11:32:51;23.25;;;12.07;;
61840;SDS011;47773;53.174;6.614;2024-01-06T11:35:18;21.02;;;11.40;;
61840;SDS011;47773;53.174;6.614;2024-01-06T11:40:33;24.88;;;11.93;;
61840;SDS011;47773;53.174;6.614;2024-01-06T11:45:27;24.65;;;11.90;;
61840;SDS011;47773;53.174;6.614;2024-01-06T11:47:57;27.77;;;12.73;;
61840;SDS011;47773;53.174;6.614;2024-01-06T11:50:25;23.77;;;12.68;;
61840;SDS011;47773;53.174;6.614;2024-01-06T11:52:52;27.20;;;13.40;;
61840;SDS011;47773;53.174;6.614;2024-01-06T11:55:18;25.27;;;12.68;;
61840;SDS011;47773;53.174;6.614;2024-01-06T11:57:44;21.08;;;11.50;;
61840;SDS011;47773;53.174;6.614;2024-01-06T12:00:10;23.40;;;11.65;;
61840;SDS011;47773;53.174;6.614;2024-01-06T12:02:38;21.27;;;12.32;;
61840;SDS011;47773;53.174;6.614;2024-01-06T12:05:04;22.65;;;11.55;;
61840;SDS011;47773;53.174;6.614;2024-01-06T12:07:30;26.08;;;12.07;;
61840;SDS011;47773;53.174;6.614;2024-01-06T12:10:03;20.55;;;11.70;;
61840;SDS011;47773;53.174;6.614;2024-01-06T12:12:29;24.88;;;11.50;;
61840;SDS011;47773;53.174;6.614;2024-01-06T12:14:54;23.83;;;12.52;;
61840;SDS011;47773;53.174;6.614;2024-01-06T12:17:20;23.88;;;11.20;;
61840;SDS011;47773;53.174;6.614;2024-01-06T12:19:47;19.60;;;10.35;;
61840;SDS011;47773;53.174;6.614;2024-01-06T12:22:14;24.23;;;11.63;;
61840;SDS011;47773;53.174;6.614;2024-01-06T12:24:40;20.92;;;10.98;;
61840;SDS011;47773;53.174;6.614;2024-01-06T12:27:08;19.13;;;10.52;;
61840;SDS011;47773;53.174;6.614;2024-01-06T12:29:41;20.77;;;10.98;;
61840;SDS011;47773;53.174;6.614;2024-01-06T12:32:07;20.65;;;10.38;;
61840;SDS011;47773;53.174;6.614;2024-01-06T12:34:34;20.60;;;10.98;;
61840;SDS011;47773;53.174;6.614;2024-01-06T12:37:00;21.38;;;11.40;;
61840;SDS011;47773;53.174;6.614;2024-01-06T12:39:30;19.75;;;11.15;;
61840;SDS011;47773;53.174;6.614;2024-01-06T12:41:56;22.25;;;11.32;;
61840;SDS011;47773;53.174;6.614;2024-01-06T12:44:22;21.88;;;11.35;;
61840;SDS011;47773;53.174;6.614;2024-01-06T12:46:50;21.92;;;11.50;;
61840;SDS011;47773;53.174;6.614;2024-01-06T12:49:16;21.40;;;10.85;;
61840;SDS011;47773;53.174;6.614;2024-01-06T12:51:42;19.77;;;11.27;;
61840;SDS011;47773;53.174;6.614;2024-01-06T12:54:07;23.02;;;11.38;;
61840;SDS011;47773;53.174;6.614;2024-01-06T12:56:33;22.42;;;11.80;;
61840;SDS011;47773;53.174;6.614;2024-01-06T12:58:59;23.80;;;10.48;;
61840;SDS011;47773;53.174;6.614;2024-01-06T13:01:25;22.48;;;11.02;;
61840;SDS011;47773;53.174;6.614;2024-01-06T13:03:50;20.08;;;10.57;;
61840;SDS011;47773;53.174;6.614;2024-01-06T13:06:18;22.85;;;12.13;;
61840;SDS011;47773;53.174;6.614;2024-01-06T13:08:44;19.73;;;11.20;;
61840;SDS011;47773;53.174;6.614;2024-01-06T13:11:10;20.55;;;11.07;;
61840;SDS011;47773;53.174;6.614;2024-01-06T13:13:36;25.52;;;11.35;;
61840;SDS011;47773;53.174;6.614;2024-01-06T13:16:01;21.38;;;11.30;;
61840;SDS011;47773;53.174;6.614;2024-01-06T13:18:30;23.23;;;11.07;;
61840;SDS011;47773;53.174;6.614;2024-01-06T13:20:55;21.27;;;11.02;;
61840;SDS011;47773;53.174;6.614;2024-01-06T13:23:21;21.85;;;11.30;;
61840;SDS011;47773;53.174;6.614;2024-01-06T13:25:47;21.38;;;11.35;;
61840;SDS011;47773;53.174;6.614;2024-01-06T13:28:12;21.92;;;11.18;;
61840;SDS011;47773;53.174;6.614;2024-01-06T13:30:39;20.85;;;10.95;;
61840;SDS011;47773;53.174;6.614;2024-01-06T13:33:06;22.20;;;11.52;;
61840;SDS011;47773;53.174;6.614;2024-01-06T13:35:34;22.00;;;11.43;;
61840;SDS011;47773;53.174;6.614;2024-01-06T13:38:01;21.88;;;11.40;;
61840;SDS011;47773;53.174;6.614;2024-01-06T13:40:29;21.75;;;11.98;;
61840;SDS011;47773;53.174;6.614;2024-01-06T13:42:55;19.95;;;10.80;;
61840;SDS011;47773;53.174;6.614;2024-01-06T13:45:21;23.13;;;11.55;;
61840;SDS011;47773;53.174;6.614;2024-01-06T13:47:46;21.98;;;11.02;;
61840;SDS011;47773;53.174;6.614;2024-01-06T13:50:12;21.73;;;10.73;;
61840;SDS011;47773;53.174;6.614;2024-01-06T13:52:42;22.40;;;11.38;;
61840;SDS011;47773;53.174;6.614;2024-01-06T13:55:08;21.02;;;10.85;;
61840;SDS011;47773;53.174;6.614;2024-01-06T13:57:34;19.75;;;11.02;;
61840;SDS011;47773;53.174;6.614;2024-01-06T14:00:00;17.23;;;9.63;;
61840;SDS011;47773;53.174;6.614;2024-01-06T14:02:26;21.90;;;10.82;;
61840;SDS011;47773;53.174;6.614;2024-01-06T14:04:52;20.88;;;10.73;;
61840;SDS011;47773;53.174;6.614;2024-01-06T14:07:18;20.55;;;9.88;;
61840;SDS011;47773;53.174;6.614;2024-01-06T14:09:44;21.00;;;10.75;;
61840;SDS011;47773;53.174;6.614;2024-01-06T14:12:11;22.50;;;11.73;;
61840;SDS011;47773;53.174;6.614;2024-01-06T14:14:36;24.92;;;12.35;;
61840;SDS011;47773;53.174;6.614;2024-01-06T14:17:02;20.80;;;11.10;;
61840;SDS011;47773;53.174;6.614;2024-01-06T14:19:28;23.73;;;11.15;;
61840;SDS011;47773;53.174;6.614;2024-01-06T14:21:54;19.83;;;10.40;;
61840;SDS011;47773;53.174;6.614;2024-01-06T14:24:19;21.65;;;11.48;;
61840;SDS011;47773;53.174;6.614;2024-01-06T14:26:52;20.48;;;10.48;;